sensor_id;sensor_type;location;lat;lon;timestamp;P1;durP1;ratioP1;P2;durP2;ratioP2
34573;SDS011;20809;49.594;8.734;2023-04-03T00:00:35;3.75;;;1.42;;
34573;SDS011;20809;49.594;8.734;2023-04-03T00:03:36;3.25;;;1.70;;
34573;SDS011;20809;49.594;8.734;2023-04-03T00:06:37;4.32;;;1.52;;
34573;SDS011;20809;49.594;8.734;2023-04-03T00:09:38;4.90;;;1.75;;
34573;SDS011;20809;49.594;8.734;2023-04-03T00:12:39;1.85;;;1.60;;
34573;SDS011;20809;49.594;8.734;2023-04-03T00:15:40;5.72;;;1.63;;
34573;SDS011;20809;49.594;8.734;2023-04-03T00:21:42;2.00;;;1.30;;
34573;SDS011;20809;49.594;8.734;2023-04-03T00:24:42;3.13;;;1.52;;
34573;SDS011;20809;49.594;8.734;2023-04-03T00:27:43;1.90;;;1.60;;
34573;SDS011;20809;49.594;8.734;2023-04-03T00:30:44;3.47;;;1.52;;
34573;SDS011;20809;49.594;8.734;2023-04-03T00:33:45;4.68;;;1.25;;
34573;SDS011;20809;49.594;8.734;2023-04-03T00:36:46;1.55;;;1.17;;
34573;SDS011;20809;49.594;8.734;2023-04-03T00:39:46;8.02;;;2.03;;
34573;SDS011;20809;49.594;8.734;2023-04-03T00:42:48;4.20;;;1.50;;
34573;SDS011;20809;49.594;8.734;2023-04-03T00:45:52;2.03;;;1.08;;
34573;SDS011;20809;49.594;8.734;2023-04-03T00:48:55;2.55;;;1.40;;
34573;SDS011;20809;49.594;8.734;2023-04-03T00:51:55;2.00;;;1.58;;
34573;SDS011;20809;49.594;8.734;2023-04-03T00:54:59;2.78;;;1.67;;
34573;SDS011;20809;49.594;8.734;2023-04-03T00:59:16;3.22;;;1.73;;
34573;SDS011;20809;49.594;8.734;2023-04-03T01:02:28;3.92;;;1.52;;
34573;SDS011;20809;49.594;8.734;2023-04-03T01:05:29;1.90;;;1.70;;
34573;SDS011;20809;49.594;8.734;2023-04-03T01:08:30;4.55;;;1.98;;
34573;SDS011;20809;49.594;8.734;2023-04-03T01:11:32;2.45;;;1.90;;
34573;SDS011;20809;49.594;8.734;2023-04-03T01:14:34;4.28;;;2.25;;
34573;SDS011;20809;49.594;8.734;2023-04-03T01:17:39;6.68;;;2.35;;
34573;SDS011;20809;49.594;8.734;2023-04-03T01:27:31;5.80;;;2.45;;
34573;SDS011;20809;49.594;8.734;2023-04-03T01:31:18;7.90;;;2.50;;
34573;SDS011;20809;49.594;8.734;2023-04-03T01:34:10;4.75;;;2.53;;
34573;SDS011;20809;49.594;8.734;2023-04-03T01:37:12;2.97;;;2.50;;
34573;SDS011;20809;49.594;8.734;2023-04-03T01:40:20;3.08;;;2.33;;
34573;SDS011;20809;49.594;8.734;2023-04-03T01:43:23;5.70;;;2.55;;
34573;SDS011;20809;49.594;8.734;2023-04-03T01:46:29;4.95;;;2.47;;
34573;SDS011;20809;49.594;8.734;2023-04-03T01:49:30;3.42;;;3.13;;
34573;SDS011;20809;49.594;8.734;2023-04-03T01:52:32;3.75;;;3.17;;
34573;SDS011;20809;49.594;8.734;2023-04-03T01:55:33;4.85;;;2.85;;
34573;SDS011;20809;49.594;8.734;2023-04-03T01:58:34;3.63;;;2.35;;
34573;SDS011;20809;49.594;8.734;2023-04-03T02:01:36;5.22;;;2.97;;
34573;SDS011;20809;49.594;8.734;2023-04-03T02:04:37;6.50;;;3.15;;
34573;SDS011;20809;49.594;8.734;2023-04-03T02:07:42;7.28;;;3.53;;
34573;SDS011;20809;49.594;8.734;2023-04-03T02:10:43;8.27;;;3.20;;
34573;SDS011;20809;49.594;8.734;2023-04-03T02:13:47;4.13;;;3.40;;
34573;SDS011;20809;49.594;8.734;2023-04-03T02:16:48;5.30;;;2.70;;
34573;SDS011;20809;49.594;8.734;2023-04-03T02:19:50;3.45;;;2.90;;
34573;SDS011;20809;49.594;8.734;2023-04-03T02:22:51;5.40;;;3.10;;
34573;SDS011;20809;49.594;8.734;2023-04-03T02:28:54;4.18;;;2.80;;
34573;SDS011;20809;49.594;8.734;2023-04-03T02:34:57;3.63;;;3.03;;
34573;SDS011;20809;49.594;8.734;2023-04-03T02:38:02;2.70;;;2.50;;
34573;SDS011;20809;49.594;8.734;2023-04-03T02:44:06;3.25;;;2.47;;
34573;SDS011;20809;49.594;8.734;2023-04-03T02:47:13;3.90;;;3.38;;
34573;SDS011;20809;49.594;8.734;2023-04-03T02:50:15;3.63;;;2.65;;
34573;SDS011;20809;49.594;8.734;2023-04-03T02:53:17;3.10;;;2.70;;
34573;SDS011;20809;49.594;8.734;2023-04-03T02:56:23;3.88;;;3.00;;
34573;SDS011;20809;49.594;8.734;2023-04-03T02:59:27;5.90;;;3.10;;
34573;SDS011;20809;49.594;8.734;2023-04-03T03:02:33;4.53;;;3.08;;
34573;SDS011;20809;49.594;8.734;2023-04-03T03:05:34;6.25;;;3.17;;
34573;SDS011;20809;49.594;8.734;2023-04-03T03:08:36;4.45;;;3.08;;
34573;SDS011;20809;49.594;8.734;2023-04-03T03:11:38;3.90;;;2.83;;
34573;SDS011;20809;49.594;8.734;2023-04-03T03:14:44;6.00;;;3.00;;
34573;SDS011;20809;49.594;8.734;2023-04-03T03:17:53;3.85;;;3.15;;
34573;SDS011;20809;49.594;8.734;2023-04-03T03:20:55;5.85;;;3.15;;
34573;SDS011;20809;49.594;8.734;2023-04-03T03:23:58;6.32;;;5.20;;
34573;SDS011;20809;49.594;8.734;2023-04-03T03:26:59;8.32;;;5.95;;
34573;SDS011;20809;49.594;8.734;2023-04-03T03:30:00;8.70;;;5.00;;
34573;SDS011;20809;49.594;8.734;2023-04-03T03:33:03;6.80;;;4.10;;
34573;SDS011;20809;49.594;8.734;2023-04-03T03:39:05;4.07;;;2.92;;
34573;SDS011;20809;49.594;8.734;2023-04-03T03:42:06;10.95;;;3.22;;
34573;SDS011;20809;49.594;8.734;2023-04-03T03:45:07;5.57;;;3.28;;
34573;SDS011;20809;49.594;8.734;2023-04-03T03:48:09;3.55;;;2.90;;
34573;SDS011;20809;49.594;8.734;2023-04-03T03:54:12;4.45;;;3.25;;
34573;SDS011;20809;49.594;8.734;2023-04-03T03:57:16;5.70;;;3.28;;
34573;SDS011;20809;49.594;8.734;2023-04-03T04:00:16;5.10;;;3.72;;
34573;SDS011;20809;49.594;8.734;2023-04-03T04:03:18;6.72;;;3.40;;
34573;SDS011;20809;49.594;8.734;2023-04-03T04:06:21;5.57;;;2.75;;
34573;SDS011;20809;49.594;8.734;2023-04-03T04:09:22;4.63;;;3.38;;
34573;SDS011;20809;49.594;8.734;2023-04-03T04:12:23;3.78;;;3.03;;
34573;SDS011;20809;49.594;8.734;2023-04-03T04:15:25;5.95;;;2.80;;
34573;SDS011;20809;49.594;8.734;2023-04-03T04:18:27;5.20;;;3.20;;
34573;SDS011;20809;49.594;8.734;2023-04-03T04:21:29;6.40;;;3.20;;
34573;SDS011;20809;49.594;8.734;2023-04-03T04:24:30;4.65;;;3.85;;
34573;SDS011;20809;49.594;8.734;2023-04-03T04:27:34;6.30;;;3.47;;
34573;SDS011;20809;49.594;8.734;2023-04-03T04:30:39;4.95;;;3.40;;
34573;SDS011;20809;49.594;8.734;2023-04-03T04:33:43;4.75;;;3.38;;
34573;SDS011;20809;49.594;8.734;2023-04-03T04:36:45;6.10;;;3.13;;
34573;SDS011;20809;49.594;8.734;2023-04-03T04:39:48;6.93;;;3.70;;
34573;SDS011;20809;49.594;8.734;2023-04-03T04:42:51;4.57;;;3.40;;
34573;SDS011;20809;49.594;8.734;2023-04-03T04:49:09;6.07;;;3.60;;
34573;SDS011;20809;49.594;8.734;2023-04-03T04:52:11;5.18;;;3.75;;
34573;SDS011;20809;49.594;8.734;2023-04-03T04:55:13;5.22;;;4.32;;
34573;SDS011;20809;49.594;8.734;2023-04-03T04:58:18;6.68;;;3.85;;
34573;SDS011;20809;49.594;8.734;2023-04-03T05:01:26;6.38;;;4.15;;
34573;SDS011;20809;49.594;8.734;2023-04-03T05:04:32;7.35;;;4.22;;
34573;SDS011;20809;49.594;8.734;2023-04-03T05:07:37;7.13;;;4.15;;
34573;SDS011;20809;49.594;8.734;2023-04-03T05:10:46;6.10;;;4.30;;
34573;SDS011;20809;49.594;8.734;2023-04-03T05:13:48;6.50;;;4.35;;
34573;SDS011;20809;49.594;8.734;2023-04-03T05:16:50;5.25;;;4.07;;
34573;SDS011;20809;49.594;8.734;2023-04-03T05:19:54;4.70;;;3.83;;
34573;SDS011;20809;49.594;8.734;2023-04-03T05:22:57;5.45;;;4.03;;
34573;SDS011;20809;49.594;8.734;2023-04-03T05:26:00;8.45;;;5.80;;
34573;SDS011;20809;49.594;8.734;2023-04-03T05:29:02;6.75;;;4.35;;
34573;SDS011;20809;49.594;8.734;2023-04-03T05:32:09;6.38;;;3.90;;
34573;SDS011;20809;49.594;8.734;2023-04-03T05:35:14;7.15;;;4.20;;
34573;SDS011;20809;49.594;8.734;2023-04-03T05:38:28;5.22;;;4.22;;
34573;SDS011;20809;49.594;8.734;2023-04-03T05:41:32;9.50;;;4.72;;
34573;SDS011;20809;49.594;8.734;2023-04-03T05:44:36;23.27;;;13.60;;
34573;SDS011;20809;49.594;8.734;2023-04-03T05:47:39;8.30;;;5.30;;
34573;SDS011;20809;49.594;8.734;2023-04-03T05:50:48;7.72;;;4.95;;
34573;SDS011;20809;49.594;8.734;2023-04-03T05:53:50;5.05;;;4.18;;
34573;SDS011;20809;49.594;8.734;2023-04-03T05:57:00;6.28;;;4.57;;
34573;SDS011;20809;49.594;8.734;2023-04-03T06:00:04;8.40;;;4.85;;
34573;SDS011;20809;49.594;8.734;2023-04-03T06:03:15;5.20;;;4.38;;
34573;SDS011;20809;49.594;8.734;2023-04-03T06:06:24;6.72;;;4.57;;
34573;SDS011;20809;49.594;8.734;2023-04-03T06:09:48;6.70;;;4.90;;
34573;SDS011;20809;49.594;8.734;2023-04-03T06:12:52;10.75;;;4.80;;
34573;SDS011;20809;49.594;8.734;2023-04-03T06:18:55;7.20;;;5.10;;
34573;SDS011;20809;49.594;8.734;2023-04-03T06:21:58;18.40;;;10.98;;
34573;SDS011;20809;49.594;8.734;2023-04-03T06:25:01;23.23;;;15.27;;
34573;SDS011;20809;49.594;8.734;2023-04-03T06:28:05;13.77;;;9.25;;
34573;SDS011;20809;49.594;8.734;2023-04-03T06:31:10;12.38;;;7.25;;
34573;SDS011;20809;49.594;8.734;2023-04-03T06:34:12;8.85;;;5.43;;
34573;SDS011;20809;49.594;8.734;2023-04-03T06:37:17;9.63;;;6.50;;
34573;SDS011;20809;49.594;8.734;2023-04-03T06:40:24;8.45;;;4.68;;
34573;SDS011;20809;49.594;8.734;2023-04-03T06:43:28;6.00;;;3.70;;
34573;SDS011;20809;49.594;8.734;2023-04-03T06:46:34;8.13;;;4.35;;
34573;SDS011;20809;49.594;8.734;2023-04-03T06:49:37;4.65;;;3.58;;
34573;SDS011;20809;49.594;8.734;2023-04-03T06:52:43;2.72;;;2.33;;
34573;SDS011;20809;49.594;8.734;2023-04-03T06:55:45;5.60;;;3.08;;
34573;SDS011;20809;49.594;8.734;2023-04-03T06:58:47;3.67;;;3.20;;
34573;SDS011;20809;49.594;8.734;2023-04-03T07:01:51;5.30;;;2.85;;
34573;SDS011;20809;49.594;8.734;2023-04-03T07:04:53;4.03;;;2.20;;
34573;SDS011;20809;49.594;8.734;2023-04-03T07:07:55;4.10;;;2.75;;
34573;SDS011;20809;49.594;8.734;2023-04-03T07:14:59;3.10;;;2.33;;
34573;SDS011;20809;49.594;8.734;2023-04-03T07:18:05;4.15;;;1.60;;
34573;SDS011;20809;49.594;8.734;2023-04-03T07:21:09;3.25;;;1.70;;
34573;SDS011;20809;49.594;8.734;2023-04-03T07:24:11;6.60;;;1.75;;
34573;SDS011;20809;49.594;8.734;2023-04-03T07:27:12;5.03;;;1.80;;
34573;SDS011;20809;49.594;8.734;2023-04-03T07:30:17;2.42;;;1.85;;
34573;SDS011;20809;49.594;8.734;2023-04-03T07:33:21;2.88;;;1.63;;
34573;SDS011;20809;49.594;8.734;2023-04-03T07:36:29;3.20;;;1.58;;
34573;SDS011;20809;49.594;8.734;2023-04-03T07:39:43;3.50;;;1.10;;
34573;SDS011;20809;49.594;8.734;2023-04-03T07:42:46;3.13;;;1.70;;
34573;SDS011;20809;49.594;8.734;2023-04-03T07:45:51;4.65;;;1.55;;
34573;SDS011;20809;49.594;8.734;2023-04-03T07:48:54;2.65;;;1.83;;
34573;SDS011;20809;49.594;8.734;2023-04-03T07:51:58;4.63;;;1.38;;
34573;SDS011;20809;49.594;8.734;2023-04-03T07:55:11;4.43;;;1.35;;
34573;SDS011;20809;49.594;8.734;2023-04-03T07:58:16;1.85;;;1.00;;
34573;SDS011;20809;49.594;8.734;2023-04-03T08:01:24;3.40;;;1.00;;
34573;SDS011;20809;49.594;8.734;2023-04-03T08:04:31;2.05;;;1.27;;
34573;SDS011;20809;49.594;8.734;2023-04-03T08:07:37;3.88;;;1.23;;
34573;SDS011;20809;49.594;8.734;2023-04-03T08:10:47;3.13;;;1.10;;
34573;SDS011;20809;49.594;8.734;2023-04-03T08:13:52;2.70;;;1.30;;
34573;SDS011;20809;49.594;8.734;2023-04-03T08:16:58;3.13;;;1.05;;
34573;SDS011;20809;49.594;8.734;2023-04-03T08:20:09;4.65;;;1.40;;
34573;SDS011;20809;49.594;8.734;2023-04-03T08:23:15;5.85;;;1.60;;
34573;SDS011;20809;49.594;8.734;2023-04-03T08:26:23;2.28;;;1.05;;
34573;SDS011;20809;49.594;8.734;2023-04-03T08:29:33;3.25;;;1.77;;
34573;SDS011;20809;49.594;8.734;2023-04-03T08:32:40;1.55;;;0.68;;
34573;SDS011;20809;49.594;8.734;2023-04-03T08:35:46;4.47;;;1.23;;
34573;SDS011;20809;49.594;8.734;2023-04-03T08:38:52;3.00;;;1.33;;
34573;SDS011;20809;49.594;8.734;2023-04-03T08:42:00;2.67;;;1.00;;
34573;SDS011;20809;49.594;8.734;2023-04-03T08:48:41;1.27;;;0.88;;
34573;SDS011;20809;49.594;8.734;2023-04-03T08:51:46;1.60;;;1.10;;
34573;SDS011;20809;49.594;8.734;2023-04-03T08:54:56;2.60;;;1.30;;
34573;SDS011;20809;49.594;8.734;2023-04-03T09:01:39;4.10;;;1.35;;
34573;SDS011;20809;49.594;8.734;2023-04-03T09:04:45;3.42;;;1.17;;
34573;SDS011;20809;49.594;8.734;2023-04-03T09:08:22;4.45;;;1.02;;
34573;SDS011;20809;49.594;8.734;2023-04-03T09:11:27;4.53;;;0.98;;
34573;SDS011;20809;49.594;8.734;2023-04-03T09:18:12;1.58;;;0.82;;
34573;SDS011;20809;49.594;8.734;2023-04-03T09:21:27;2.13;;;0.80;;
34573;SDS011;20809;49.594;8.734;2023-04-03T09:24:43;3.95;;;0.80;;
34573;SDS011;20809;49.594;8.734;2023-04-03T09:27:51;2.47;;;0.70;;
34573;SDS011;20809;49.594;8.734;2023-04-03T09:30:55;6.32;;;1.23;;
34573;SDS011;20809;49.594;8.734;2023-04-03T09:34:03;3.15;;;0.70;;
34573;SDS011;20809;49.594;8.734;2023-04-03T09:37:40;0.88;;;0.65;;
34573;SDS011;20809;49.594;8.734;2023-04-03T09:40:50;5.13;;;0.90;;
34573;SDS011;20809;49.594;8.734;2023-04-03T09:44:24;1.70;;;0.70;;
34573;SDS011;20809;49.594;8.734;2023-04-03T09:47:33;1.67;;;0.85;;
34573;SDS011;20809;49.594;8.734;2023-04-03T09:51:00;1.60;;;0.73;;
34573;SDS011;20809;49.594;8.734;2023-04-03T09:57:28;1.13;;;0.50;;
34573;SDS011;20809;49.594;8.734;2023-04-03T10:00:40;4.93;;;0.90;;
34573;SDS011;20809;49.594;8.734;2023-04-03T10:03:45;1.65;;;0.98;;
34573;SDS011;20809;49.594;8.734;2023-04-03T10:07:34;3.28;;;1.45;;
34573;SDS011;20809;49.594;8.734;2023-04-03T10:10:37;2.67;;;0.90;;
34573;SDS011;20809;49.594;8.734;2023-04-03T10:13:52;3.50;;;1.25;;
34573;SDS011;20809;49.594;8.734;2023-04-03T10:24:12;2.58;;;0.70;;
34573;SDS011;20809;49.594;8.734;2023-04-03T10:27:17;1.83;;;0.75;;
34573;SDS011;20809;49.594;8.734;2023-04-03T10:37:53;2.08;;;0.80;;
34573;SDS011;20809;49.594;8.734;2023-04-03T10:44:31;1.65;;;0.80;;
34573;SDS011;20809;49.594;8.734;2023-04-03T10:54:44;1.77;;;0.90;;
34573;SDS011;20809;49.594;8.734;2023-04-03T10:57:55;2.20;;;0.90;;
34573;SDS011;20809;49.594;8.734;2023-04-03T11:01:06;2.40;;;1.15;;
34573;SDS011;20809;49.594;8.734;2023-04-03T11:04:20;1.58;;;0.82;;
34573;SDS011;20809;49.594;8.734;2023-04-03T11:07:29;2.33;;;1.35;;
34573;SDS011;20809;49.594;8.734;2023-04-03T11:10:46;5.40;;;0.93;;
34573;SDS011;20809;49.594;8.734;2023-04-03T11:20:30;3.30;;;1.52;;
34573;SDS011;20809;49.594;8.734;2023-04-03T11:26:39;2.35;;;1.10;;
34573;SDS011;20809;49.594;8.734;2023-04-03T11:29:45;1.05;;;0.90;;
34573;SDS011;20809;49.594;8.734;2023-04-03T11:36:28;1.65;;;0.73;;
34573;SDS011;20809;49.594;8.734;2023-04-03T11:39:56;2.40;;;1.00;;
34573;SDS011;20809;49.594;8.734;2023-04-03T11:43:21;3.70;;;0.93;;
34573;SDS011;20809;49.594;8.734;2023-04-03T11:49:56;1.30;;;1.10;;
34573;SDS011;20809;49.594;8.734;2023-04-03T11:56:29;2.47;;;1.10;;
34573;SDS011;20809;49.594;8.734;2023-04-03T11:59:38;2.15;;;0.88;;
34573;SDS011;20809;49.594;8.734;2023-04-03T12:02:47;1.83;;;0.80;;
34573;SDS011;20809;49.594;8.734;2023-04-03T12:05:49;2.28;;;1.23;;
34573;SDS011;20809;49.594;8.734;2023-04-03T12:08:56;3.75;;;1.20;;
34573;SDS011;20809;49.594;8.734;2023-04-03T12:12:19;3.15;;;1.30;;
34573;SDS011;20809;49.594;8.734;2023-04-03T12:22:07;2.25;;;1.15;;
34573;SDS011;20809;49.594;8.734;2023-04-03T12:26:00;3.38;;;1.35;;
34573;SDS011;20809;49.594;8.734;2023-04-03T12:28:50;3.97;;;2.65;;
34573;SDS011;20809;49.594;8.734;2023-04-03T12:38:47;3.33;;;0.90;;
34573;SDS011;20809;49.594;8.734;2023-04-03T12:52:47;1.45;;;0.80;;
34573;SDS011;20809;49.594;8.734;2023-04-03T12:59:25;3.15;;;0.90;;
34573;SDS011;20809;49.594;8.734;2023-04-03T13:02:30;1.88;;;1.63;;
34573;SDS011;20809;49.594;8.734;2023-04-03T13:05:37;2.38;;;1.23;;
34573;SDS011;20809;49.594;8.734;2023-04-03T13:08:47;2.30;;;1.52;;
34573;SDS011;20809;49.594;8.734;2023-04-03T13:12:01;1.67;;;1.17;;
34573;SDS011;20809;49.594;8.734;2023-04-03T13:18:22;2.55;;;1.48;;
34573;SDS011;20809;49.594;8.734;2023-04-03T13:21:29;2.55;;;0.98;;
34573;SDS011;20809;49.594;8.734;2023-04-03T13:24:38;2.45;;;1.48;;
34573;SDS011;20809;49.594;8.734;2023-04-03T13:27:41;3.13;;;1.13;;
34573;SDS011;20809;49.594;8.734;2023-04-03T13:30:55;1.52;;;1.00;;
34573;SDS011;20809;49.594;8.734;2023-04-03T13:34:20;1.77;;;1.20;;
34573;SDS011;20809;49.594;8.734;2023-04-03T13:37:28;2.78;;;1.20;;
34573;SDS011;20809;49.594;8.734;2023-04-03T13:40:46;2.90;;;1.30;;
34573;SDS011;20809;49.594;8.734;2023-04-03T13:43:53;1.05;;;0.70;;
34573;SDS011;20809;49.594;8.734;2023-04-03T13:50:24;1.90;;;0.88;;
34573;SDS011;20809;49.594;8.734;2023-04-03T13:53:30;2.28;;;1.20;;
34573;SDS011;20809;49.594;8.734;2023-04-03T13:56:39;3.17;;;1.10;;
34573;SDS011;20809;49.594;8.734;2023-04-03T13:59:46;2.67;;;1.20;;
34573;SDS011;20809;49.594;8.734;2023-04-03T14:02:49;2.35;;;1.20;;
34573;SDS011;20809;49.594;8.734;2023-04-03T14:05:54;1.33;;;1.00;;
34573;SDS011;20809;49.594;8.734;2023-04-03T14:08:56;1.90;;;1.10;;
34573;SDS011;20809;49.594;8.734;2023-04-03T14:11:59;2.35;;;1.08;;
34573;SDS011;20809;49.594;8.734;2023-04-03T14:15:11;1.88;;;0.90;;
34573;SDS011;20809;49.594;8.734;2023-04-03T14:18:22;3.17;;;1.10;;
34573;SDS011;20809;49.594;8.734;2023-04-03T14:21:22;4.03;;;1.23;;
34573;SDS011;20809;49.594;8.734;2023-04-03T14:24:27;3.65;;;0.90;;
34573;SDS011;20809;49.594;8.734;2023-04-03T14:27:36;1.83;;;0.80;;
34573;SDS011;20809;49.594;8.734;2023-04-03T14:30:39;3.47;;;1.98;;
34573;SDS011;20809;49.594;8.734;2023-04-03T14:33:40;4.15;;;2.08;;
34573;SDS011;20809;49.594;8.734;2023-04-03T14:36:42;2.08;;;0.75;;
34573;SDS011;20809;49.594;8.734;2023-04-03T14:39:44;2.05;;;0.73;;
34573;SDS011;20809;49.594;8.734;2023-04-03T14:42:46;1.52;;;0.90;;
34573;SDS011;20809;49.594;8.734;2023-04-03T14:45:50;0.95;;;0.85;;
34573;SDS011;20809;49.594;8.734;2023-04-03T14:48:51;3.95;;;0.93;;
34573;SDS011;20809;49.594;8.734;2023-04-03T14:51:55;3.03;;;1.27;;
34573;SDS011;20809;49.594;8.734;2023-04-03T14:54:58;3.92;;;1.38;;
34573;SDS011;20809;49.594;8.734;2023-04-03T14:58:01;2.03;;;1.00;;
34573;SDS011;20809;49.594;8.734;2023-04-03T15:04:19;2.20;;;0.80;;
34573;SDS011;20809;49.594;8.734;2023-04-03T15:07:21;3.33;;;1.08;;
34573;SDS011;20809;49.594;8.734;2023-04-03T15:10:25;2.10;;;0.82;;
34573;SDS011;20809;49.594;8.734;2023-04-03T15:13:27;1.90;;;0.90;;
34573;SDS011;20809;49.594;8.734;2023-04-03T15:16:28;5.57;;;2.50;;
34573;SDS011;20809;49.594;8.734;2023-04-03T15:22:36;1.98;;;0.70;;
34573;SDS011;20809;49.594;8.734;2023-04-03T15:25:37;1.45;;;0.70;;
34573;SDS011;20809;49.594;8.734;2023-04-03T15:28:41;7.78;;;1.27;;
34573;SDS011;20809;49.594;8.734;2023-04-03T15:31:44;3.10;;;0.90;;
34573;SDS011;20809;49.594;8.734;2023-04-03T15:34:44;2.75;;;0.73;;
34573;SDS011;20809;49.594;8.734;2023-04-03T15:37:45;3.17;;;1.10;;
34573;SDS011;20809;49.594;8.734;2023-04-03T15:40:50;3.45;;;2.13;;
34573;SDS011;20809;49.594;8.734;2023-04-03T15:43:56;1.88;;;0.68;;
34573;SDS011;20809;49.594;8.734;2023-04-03T15:47:03;2.63;;;1.08;;
34573;SDS011;20809;49.594;8.734;2023-04-03T15:50:13;2.30;;;0.73;;
34573;SDS011;20809;49.594;8.734;2023-04-03T15:53:17;1.75;;;0.98;;
34573;SDS011;20809;49.594;8.734;2023-04-03T15:56:21;1.00;;;0.70;;
34573;SDS011;20809;49.594;8.734;2023-04-03T15:59:23;3.30;;;0.90;;
34573;SDS011;20809;49.594;8.734;2023-04-03T16:02:24;6.32;;;1.42;;
34573;SDS011;20809;49.594;8.734;2023-04-03T16:05:27;3.20;;;0.90;;
34573;SDS011;20809;49.594;8.734;2023-04-03T16:08:31;0.82;;;0.70;;
34573;SDS011;20809;49.594;8.734;2023-04-03T16:11:33;1.85;;;0.80;;
34573;SDS011;20809;49.594;8.734;2023-04-03T16:14:36;2.10;;;0.90;;
34573;SDS011;20809;49.594;8.734;2023-04-03T16:20:45;3.72;;;2.03;;
34573;SDS011;20809;49.594;8.734;2023-04-03T16:23:48;3.30;;;1.15;;
34573;SDS011;20809;49.594;8.734;2023-04-03T16:26:52;5.00;;;1.30;;
34573;SDS011;20809;49.594;8.734;2023-04-03T16:30:04;1.85;;;0.73;;
34573;SDS011;20809;49.594;8.734;2023-04-03T16:33:13;1.48;;;0.80;;
34573;SDS011;20809;49.594;8.734;2023-04-03T16:36:16;0.82;;;0.50;;
34573;SDS011;20809;49.594;8.734;2023-04-03T16:39:22;1.63;;;0.85;;
34573;SDS011;20809;49.594;8.734;2023-04-03T16:42:27;2.95;;;1.15;;
34573;SDS011;20809;49.594;8.734;2023-04-03T16:45:34;2.33;;;1.42;;
34573;SDS011;20809;49.594;8.734;2023-04-03T16:48:39;3.45;;;1.02;;
34573;SDS011;20809;49.594;8.734;2023-04-03T16:51:44;2.85;;;0.88;;
34573;SDS011;20809;49.594;8.734;2023-04-03T16:54:48;1.77;;;0.90;;
34573;SDS011;20809;49.594;8.734;2023-04-03T16:57:56;2.55;;;1.65;;
34573;SDS011;20809;49.594;8.734;2023-04-03T17:01:07;2.75;;;1.00;;
34573;SDS011;20809;49.594;8.734;2023-04-03T17:04:14;2.47;;;0.85;;
34573;SDS011;20809;49.594;8.734;2023-04-03T17:07:19;3.80;;;1.25;;
34573;SDS011;20809;49.594;8.734;2023-04-03T17:10:24;3.92;;;1.20;;
34573;SDS011;20809;49.594;8.734;2023-04-03T17:13:27;4.40;;;1.10;;
34573;SDS011;20809;49.594;8.734;2023-04-03T17:16:35;1.92;;;1.08;;
34573;SDS011;20809;49.594;8.734;2023-04-03T17:19:38;3.45;;;1.10;;
34573;SDS011;20809;49.594;8.734;2023-04-03T17:22:42;1.33;;;0.90;;
34573;SDS011;20809;49.594;8.734;2023-04-03T17:25:44;2.53;;;1.50;;
34573;SDS011;20809;49.594;8.734;2023-04-03T17:28:53;4.10;;;1.50;;
34573;SDS011;20809;49.594;8.734;2023-04-03T17:32:02;3.05;;;1.35;;
34573;SDS011;20809;49.594;8.734;2023-04-03T17:35:10;1.17;;;0.70;;
34573;SDS011;20809;49.594;8.734;2023-04-03T17:38:15;4.82;;;1.17;;
34573;SDS011;20809;49.594;8.734;2023-04-03T17:41:18;2.35;;;1.23;;
34573;SDS011;20809;49.594;8.734;2023-04-03T17:44:21;2.45;;;1.45;;
34573;SDS011;20809;49.594;8.734;2023-04-03T17:47:24;2.97;;;1.20;;
34573;SDS011;20809;49.594;8.734;2023-04-03T17:50:27;2.80;;;1.10;;
34573;SDS011;20809;49.594;8.734;2023-04-03T17:53:30;3.28;;;1.88;;
34573;SDS011;20809;49.594;8.734;2023-04-03T17:56:33;3.58;;;1.02;;
34573;SDS011;20809;49.594;8.734;2023-04-03T17:59:36;2.40;;;1.02;;
34573;SDS011;20809;49.594;8.734;2023-04-03T18:02:38;4.03;;;2.00;;
34573;SDS011;20809;49.594;8.734;2023-04-03T18:05:41;1.80;;;1.15;;
34573;SDS011;20809;49.594;8.734;2023-04-03T18:08:43;3.67;;;1.33;;
34573;SDS011;20809;49.594;8.734;2023-04-03T18:11:50;3.78;;;0.90;;
34573;SDS011;20809;49.594;8.734;2023-04-03T18:14:55;2.05;;;1.10;;
34573;SDS011;20809;49.594;8.734;2023-04-03T18:17:59;2.65;;;1.25;;
34573;SDS011;20809;49.594;8.734;2023-04-03T18:21:05;4.55;;;1.30;;
34573;SDS011;20809;49.594;8.734;2023-04-03T18:24:11;1.85;;;1.10;;
34573;SDS011;20809;49.594;8.734;2023-04-03T18:27:17;4.35;;;1.50;;
34573;SDS011;20809;49.594;8.734;2023-04-03T18:30:23;3.80;;;1.15;;
34573;SDS011;20809;49.594;8.734;2023-04-03T18:33:27;1.77;;;1.55;;
34573;SDS011;20809;49.594;8.734;2023-04-03T18:36:35;2.22;;;1.25;;
34573;SDS011;20809;49.594;8.734;2023-04-03T18:39:36;7.07;;;2.17;;
34573;SDS011;20809;49.594;8.734;2023-04-03T18:45:40;1.45;;;0.98;;
34573;SDS011;20809;49.594;8.734;2023-04-03T18:48:43;1.60;;;0.95;;
34573;SDS011;20809;49.594;8.734;2023-04-03T18:51:47;3.17;;;1.20;;
34573;SDS011;20809;49.594;8.734;2023-04-03T18:54:48;4.65;;;1.48;;
34573;SDS011;20809;49.594;8.734;2023-04-03T18:57:51;3.97;;;1.35;;
34573;SDS011;20809;49.594;8.734;2023-04-03T19:00:52;1.27;;;0.98;;
34573;SDS011;20809;49.594;8.734;2023-04-03T19:03:56;0.93;;;0.80;;
34573;SDS011;20809;49.594;8.734;2023-04-03T19:06:57;2.80;;;1.38;;
34573;SDS011;20809;49.594;8.734;2023-04-03T19:10:00;2.20;;;0.80;;
34573;SDS011;20809;49.594;8.734;2023-04-03T19:13:03;3.65;;;1.20;;
34573;SDS011;20809;49.594;8.734;2023-04-03T19:16:05;2.13;;;1.25;;
34573;SDS011;20809;49.594;8.734;2023-04-03T19:19:06;1.70;;;1.02;;
34573;SDS011;20809;49.594;8.734;2023-04-03T19:22:08;2.78;;;1.08;;
34573;SDS011;20809;49.594;8.734;2023-04-03T19:25:13;5.47;;;1.10;;
34573;SDS011;20809;49.594;8.734;2023-04-03T19:28:15;1.70;;;0.82;;
34573;SDS011;20809;49.594;8.734;2023-04-03T19:31:20;7.75;;;3.10;;
34573;SDS011;20809;49.594;8.734;2023-04-03T19:34:29;1.02;;;0.80;;
34573;SDS011;20809;49.594;8.734;2023-04-03T19:37:33;1.60;;;1.20;;
34573;SDS011;20809;49.594;8.734;2023-04-03T19:40:38;4.50;;;1.27;;
34573;SDS011;20809;49.594;8.734;2023-04-03T19:43:43;1.85;;;0.80;;
34573;SDS011;20809;49.594;8.734;2023-04-03T19:46:46;4.20;;;0.73;;
34573;SDS011;20809;49.594;8.734;2023-04-03T19:49:49;3.42;;;1.10;;
34573;SDS011;20809;49.594;8.734;2023-04-03T19:52:50;6.13;;;0.90;;
34573;SDS011;20809;49.594;8.734;2023-04-03T19:55:52;2.50;;;0.98;;
34573;SDS011;20809;49.594;8.734;2023-04-03T19:58:56;2.55;;;0.98;;
34573;SDS011;20809;49.594;8.734;2023-04-03T20:01:58;1.20;;;0.90;;
34573;SDS011;20809;49.594;8.734;2023-04-03T20:05:00;3.33;;;1.20;;
34573;SDS011;20809;49.594;8.734;2023-04-03T20:08:11;1.33;;;0.77;;
34573;SDS011;20809;49.594;8.734;2023-04-03T20:11:16;2.75;;;1.15;;
34573;SDS011;20809;49.594;8.734;2023-04-03T20:14:18;1.25;;;0.80;;
34573;SDS011;20809;49.594;8.734;2023-04-03T20:17:20;2.10;;;1.00;;
34573;SDS011;20809;49.594;8.734;2023-04-03T20:20:22;1.92;;;1.08;;
34573;SDS011;20809;49.594;8.734;2023-04-03T20:23:25;4.57;;;1.00;;
34573;SDS011;20809;49.594;8.734;2023-04-03T20:26:36;2.85;;;1.40;;
34573;SDS011;20809;49.594;8.734;2023-04-03T20:29:46;2.58;;;1.25;;
34573;SDS011;20809;49.594;8.734;2023-04-03T20:32:50;3.78;;;0.88;;
34573;SDS011;20809;49.594;8.734;2023-04-03T20:35:54;6.88;;;1.73;;
34573;SDS011;20809;49.594;8.734;2023-04-03T20:38:56;1.45;;;0.98;;
34573;SDS011;20809;49.594;8.734;2023-04-03T20:41:59;1.67;;;0.90;;
34573;SDS011;20809;49.594;8.734;2023-04-03T20:45:06;4.75;;;1.02;;
34573;SDS011;20809;49.594;8.734;2023-04-03T20:48:14;5.20;;;1.00;;
34573;SDS011;20809;49.594;8.734;2023-04-03T20:51:20;1.38;;;1.20;;
34573;SDS011;20809;49.594;8.734;2023-04-03T20:54:24;2.28;;;0.80;;
34573;SDS011;20809;49.594;8.734;2023-04-03T20:57:27;2.58;;;0.90;;
34573;SDS011;20809;49.594;8.734;2023-04-03T21:00:31;4.47;;;1.08;;